sensor_id;sensor_type;location;lat;lon;timestamp;P1;durP1;ratioP1;P2;durP2;ratioP2
77598;SDS011;66758;52.078;5.070;2023-05-07T00:02:07;33.27;;;21.47;;
77598;SDS011;66758;52.078;5.070;2023-05-07T00:04:33;29.80;;;20.98;;
77598;SDS011;66758;52.078;5.070;2023-05-07T00:07:02;29.03;;;19.93;;
77598;SDS011;66758;52.078;5.070;2023-05-07T00:09:27;28.30;;;19.85;;
77598;SDS011;66758;52.078;5.070;2023-05-07T00:11:52;27.53;;;19.43;;
77598;SDS011;66758;52.078;5.070;2023-05-07T00:14:18;26.77;;;19.37;;
77598;SDS011;66758;52.078;5.070;2023-05-07T00:16:43;26.33;;;18.73;;
77598;SDS011;66758;52.078;5.070;2023-05-07T00:19:08;22.92;;;17.80;;
77598;SDS011;66758;52.078;5.070;2023-05-07T00:21:34;23.77;;;17.73;;
77598;SDS011;66758;52.078;5.070;2023-05-07T00:23:59;24.20;;;18.20;;
77598;SDS011;66758;52.078;5.070;2023-05-07T00:26:24;23.10;;;18.47;;
77598;SDS011;66758;52.078;5.070;2023-05-07T00:28:50;23.63;;;17.70;;
77598;SDS011;66758;52.078;5.070;2023-05-07T00:31:15;22.75;;;18.27;;
77598;SDS011;66758;52.078;5.070;2023-05-07T00:33:40;20.90;;;16.53;;
77598;SDS011;66758;52.078;5.070;2023-05-07T00:36:06;22.03;;;16.63;;
77598;SDS011;66758;52.078;5.070;2023-05-07T00:38:31;24.10;;;16.33;;
77598;SDS011;66758;52.078;5.070;2023-05-07T00:40:56;19.33;;;16.03;;
77598;SDS011;66758;52.078;5.070;2023-05-07T00:43:22;20.52;;;15.38;;
77598;SDS011;66758;52.078;5.070;2023-05-07T00:45:47;20.00;;;16.20;;
77598;SDS011;66758;52.078;5.070;2023-05-07T00:48:13;21.23;;;15.67;;
77598;SDS011;66758;52.078;5.070;2023-05-07T00:50:38;21.13;;;17.27;;
77598;SDS011;66758;52.078;5.070;2023-05-07T00:53:04;22.05;;;15.57;;
77598;SDS011;66758;52.078;5.070;2023-05-07T00:55:29;17.77;;;14.30;;
77598;SDS011;66758;52.078;5.070;2023-05-07T00:57:54;20.53;;;14.77;;
77598;SDS011;66758;52.078;5.070;2023-05-07T01:00:20;18.67;;;14.70;;
77598;SDS011;66758;52.078;5.070;2023-05-07T01:02:46;18.85;;;14.38;;
77598;SDS011;66758;52.078;5.070;2023-05-07T01:05:12;16.87;;;14.33;;
77598;SDS011;66758;52.078;5.070;2023-05-07T01:07:38;19.17;;;14.70;;
77598;SDS011;66758;52.078;5.070;2023-05-07T01:10:05;20.48;;;14.75;;
77598;SDS011;66758;52.078;5.070;2023-05-07T01:12:31;19.90;;;16.20;;
77598;SDS011;66758;52.078;5.070;2023-05-07T01:14:57;20.27;;;14.90;;
77598;SDS011;66758;52.078;5.070;2023-05-07T01:17:23;21.23;;;15.87;;
77598;SDS011;66758;52.078;5.070;2023-05-07T01:19:48;17.40;;;14.40;;
77598;SDS011;66758;52.078;5.070;2023-05-07T01:22:15;20.00;;;14.45;;
77598;SDS011;66758;52.078;5.070;2023-05-07T01:24:41;19.27;;;13.77;;
77598;SDS011;66758;52.078;5.070;2023-05-07T01:27:07;20.42;;;14.45;;
77598;SDS011;66758;52.078;5.070;2023-05-07T01:29:32;18.00;;;13.33;;
77598;SDS011;66758;52.078;5.070;2023-05-07T01:31:58;16.63;;;13.33;;
77598;SDS011;66758;52.078;5.070;2023-05-07T01:34:24;17.88;;;13.85;;
77598;SDS011;66758;52.078;5.070;2023-05-07T01:36:50;16.53;;;13.60;;
77598;SDS011;66758;52.078;5.070;2023-05-07T01:39:18;17.52;;;13.07;;
77598;SDS011;66758;52.078;5.070;2023-05-07T01:41:43;14.73;;;12.33;;
77598;SDS011;66758;52.078;5.070;2023-05-07T01:44:09;16.92;;;12.15;;
77598;SDS011;66758;52.078;5.070;2023-05-07T01:46:36;17.30;;;12.43;;
77598;SDS011;66758;52.078;5.070;2023-05-07T01:49:01;14.93;;;11.87;;
77598;SDS011;66758;52.078;5.070;2023-05-07T01:51:28;15.63;;;11.57;;
77598;SDS011;66758;52.078;5.070;2023-05-07T01:53:53;14.02;;;12.38;;
77598;SDS011;66758;52.078;5.070;2023-05-07T01:56:18;17.10;;;12.27;;
77598;SDS011;66758;52.078;5.070;2023-05-07T01:58:47;18.97;;;13.07;;
77598;SDS011;66758;52.078;5.070;2023-05-07T02:01:13;14.73;;;12.20;;
77598;SDS011;66758;52.078;5.070;2023-05-07T02:03:38;16.02;;;12.38;;
77598;SDS011;66758;52.078;5.070;2023-05-07T02:06:04;16.47;;;12.10;;
77598;SDS011;66758;52.078;5.070;2023-05-07T02:08:29;14.38;;;11.98;;
77598;SDS011;66758;52.078;5.070;2023-05-07T02:10:55;15.88;;;12.18;;
77598;SDS011;66758;52.078;5.070;2023-05-07T02:13:21;16.53;;;12.13;;
77598;SDS011;66758;52.078;5.070;2023-05-07T02:15:48;12.10;;;10.27;;
77598;SDS011;66758;52.078;5.070;2023-05-07T02:18:15;13.32;;;11.07;;
77598;SDS011;66758;52.078;5.070;2023-05-07T02:20:43;14.25;;;11.32;;
77598;SDS011;66758;52.078;5.070;2023-05-07T02:23:08;16.02;;;11.68;;
77598;SDS011;66758;52.078;5.070;2023-05-07T02:25:33;16.80;;;11.67;;
77598;SDS011;66758;52.078;5.070;2023-05-07T02:27:59;14.97;;;12.37;;
77598;SDS011;66758;52.078;5.070;2023-05-07T02:30:24;16.47;;;11.93;;
77598;SDS011;66758;52.078;5.070;2023-05-07T02:32:50;16.70;;;12.27;;
77598;SDS011;66758;52.078;5.070;2023-05-07T02:35:15;16.27;;;11.77;;
77598;SDS011;66758;52.078;5.070;2023-05-07T02:37:40;15.40;;;12.53;;
77598;SDS011;66758;52.078;5.070;2023-05-07T02:40:06;15.47;;;12.30;;
77598;SDS011;66758;52.078;5.070;2023-05-07T02:42:31;14.80;;;11.90;;
77598;SDS011;66758;52.078;5.070;2023-05-07T02:44:56;14.53;;;10.70;;
77598;SDS011;66758;52.078;5.070;2023-05-07T02:47:22;15.77;;;12.07;;
77598;SDS011;66758;52.078;5.070;2023-05-07T02:49:47;15.53;;;11.97;;
77598;SDS011;66758;52.078;5.070;2023-05-07T02:52:12;15.23;;;12.37;;
77598;SDS011;66758;52.078;5.070;2023-05-07T02:54:38;13.50;;;10.60;;
77598;SDS011;66758;52.078;5.070;2023-05-07T02:57:03;15.53;;;11.00;;
77598;SDS011;66758;52.078;5.070;2023-05-07T02:59:28;15.97;;;11.27;;
77598;SDS011;66758;52.078;5.070;2023-05-07T03:01:53;13.87;;;10.33;;
77598;SDS011;66758;52.078;5.070;2023-05-07T03:04:18;17.37;;;11.87;;
77598;SDS011;66758;52.078;5.070;2023-05-07T03:06:44;13.50;;;10.33;;
77598;SDS011;66758;52.078;5.070;2023-05-07T03:09:09;15.03;;;10.33;;
77598;SDS011;66758;52.078;5.070;2023-05-07T03:11:34;15.13;;;10.83;;
77598;SDS011;66758;52.078;5.070;2023-05-07T03:14:01;16.55;;;11.10;;
77598;SDS011;66758;52.078;5.070;2023-05-07T03:16:27;15.88;;;12.10;;
77598;SDS011;66758;52.078;5.070;2023-05-07T03:18:52;14.73;;;11.17;;
77598;SDS011;66758;52.078;5.070;2023-05-07T03:21:17;17.50;;;11.67;;
77598;SDS011;66758;52.078;5.070;2023-05-07T03:23:43;14.10;;;11.23;;
77598;SDS011;66758;52.078;5.070;2023-05-07T03:26:08;13.43;;;11.17;;
77598;SDS011;66758;52.078;5.070;2023-05-07T03:28:33;17.10;;;13.47;;
77598;SDS011;66758;52.078;5.070;2023-05-07T03:30:59;15.82;;;12.98;;
77598;SDS011;66758;52.078;5.070;2023-05-07T03:33:25;16.77;;;12.67;;
77598;SDS011;66758;52.078;5.070;2023-05-07T03:35:50;16.23;;;12.73;;
77598;SDS011;66758;52.078;5.070;2023-05-07T03:38:15;15.37;;;11.77;;
77598;SDS011;66758;52.078;5.070;2023-05-07T03:40:41;16.03;;;12.07;;
77598;SDS011;66758;52.078;5.070;2023-05-07T03:43:06;16.40;;;12.13;;
77598;SDS011;66758;52.078;5.070;2023-05-07T03:45:31;18.73;;;13.37;;
77598;SDS011;66758;52.078;5.070;2023-05-07T03:47:58;16.48;;;12.68;;
77598;SDS011;66758;52.078;5.070;2023-05-07T03:50:23;17.33;;;13.43;;
77598;SDS011;66758;52.078;5.070;2023-05-07T03:52:48;20.67;;;13.93;;
77598;SDS011;66758;52.078;5.070;2023-05-07T03:55:14;18.52;;;14.57;;
77598;SDS011;66758;52.078;5.070;2023-05-07T03:57:39;16.87;;;14.70;;
77598;SDS011;66758;52.078;5.070;2023-05-07T04:00:07;20.00;;;14.45;;
77598;SDS011;66758;52.078;5.070;2023-05-07T04:02:33;19.45;;;15.25;;
77598;SDS011;66758;52.078;5.070;2023-05-07T04:04:58;20.27;;;15.60;;
77598;SDS011;66758;52.078;5.070;2023-05-07T04:07:25;21.20;;;15.70;;
77598;SDS011;66758;52.078;5.070;2023-05-07T04:09:50;20.45;;;15.63;;
77598;SDS011;66758;52.078;5.070;2023-05-07T04:12:16;22.90;;;15.90;;
77598;SDS011;66758;52.078;5.070;2023-05-07T04:14:42;21.00;;;15.37;;
77598;SDS011;66758;52.078;5.070;2023-05-07T04:17:08;19.05;;;15.18;;
77598;SDS011;66758;52.078;5.070;2023-05-07T04:19:34;19.65;;;15.38;;
77598;SDS011;66758;52.078;5.070;2023-05-07T04:22:00;20.73;;;15.47;;
77598;SDS011;66758;52.078;5.070;2023-05-07T04:24:25;21.30;;;15.23;;
77598;SDS011;66758;52.078;5.070;2023-05-07T04:26:51;23.00;;;15.50;;
77598;SDS011;66758;52.078;5.070;2023-05-07T04:29:17;23.33;;;16.88;;
77598;SDS011;66758;52.078;5.070;2023-05-07T04:31:43;20.73;;;15.90;;
77598;SDS011;66758;52.078;5.070;2023-05-07T04:34:11;23.05;;;15.75;;
77598;SDS011;66758;52.078;5.070;2023-05-07T04:36:37;23.00;;;16.60;;
77598;SDS011;66758;52.078;5.070;2023-05-07T04:39:03;23.33;;;16.05;;
77598;SDS011;66758;52.078;5.070;2023-05-07T04:41:28;21.87;;;15.80;;
77598;SDS011;66758;52.078;5.070;2023-05-07T04:43:53;20.43;;;15.53;;
77598;SDS011;66758;52.078;5.070;2023-05-07T04:46:18;21.80;;;16.40;;
77598;SDS011;66758;52.078;5.070;2023-05-07T04:48:45;20.83;;;15.97;;
77598;SDS011;66758;52.078;5.070;2023-05-07T04:51:10;22.45;;;15.93;;
77598;SDS011;66758;52.078;5.070;2023-05-07T04:53:36;20.67;;;15.97;;
77598;SDS011;66758;52.078;5.070;2023-05-07T04:56:02;21.33;;;16.05;;
77598;SDS011;66758;52.078;5.070;2023-05-07T04:58:27;22.47;;;15.93;;
77598;SDS011;66758;52.078;5.070;2023-05-07T05:00:56;21.13;;;15.95;;
77598;SDS011;66758;52.078;5.070;2023-05-07T05:03:21;22.83;;;16.33;;
77598;SDS011;66758;52.078;5.070;2023-05-07T05:05:48;20.87;;;15.37;;
77598;SDS011;66758;52.078;5.070;2023-05-07T05:08:13;21.95;;;15.57;;
77598;SDS011;66758;52.078;5.070;2023-05-07T05:10:40;19.30;;;14.70;;
77598;SDS011;66758;52.078;5.070;2023-05-07T05:13:06;22.05;;;15.38;;
77598;SDS011;66758;52.078;5.070;2023-05-07T05:15:32;20.63;;;14.70;;
77598;SDS011;66758;52.078;5.070;2023-05-07T05:17:57;20.63;;;15.83;;
77598;SDS011;66758;52.078;5.070;2023-05-07T05:20:24;20.27;;;15.23;;
77598;SDS011;66758;52.078;5.070;2023-05-07T05:22:49;20.57;;;15.53;;
77598;SDS011;66758;52.078;5.070;2023-05-07T05:25:14;20.87;;;15.90;;
77598;SDS011;66758;52.078;5.070;2023-05-07T05:27:40;20.23;;;16.25;;
77598;SDS011;66758;52.078;5.070;2023-05-07T05:30:05;21.03;;;16.20;;
77598;SDS011;66758;52.078;5.070;2023-05-07T05:32:31;20.43;;;15.53;;
77598;SDS011;66758;52.078;5.070;2023-05-07T05:34:56;21.53;;;15.57;;
77598;SDS011;66758;52.078;5.070;2023-05-07T05:37:22;20.65;;;16.40;;
77598;SDS011;66758;52.078;5.070;2023-05-07T05:39:47;19.97;;;15.87;;
77598;SDS011;66758;52.078;5.070;2023-05-07T05:42:12;23.40;;;15.77;;
77598;SDS011;66758;52.078;5.070;2023-05-07T05:44:38;19.60;;;15.43;;
77598;SDS011;66758;52.078;5.070;2023-05-07T05:47:03;20.00;;;15.87;;
77598;SDS011;66758;52.078;5.070;2023-05-07T05:49:28;20.42;;;15.50;;
77598;SDS011;66758;52.078;5.070;2023-05-07T05:51:54;19.53;;;15.43;;
77598;SDS011;66758;52.078;5.070;2023-05-07T05:54:20;21.87;;;16.10;;
77598;SDS011;66758;52.078;5.070;2023-05-07T05:56:46;23.50;;;16.90;;
77598;SDS011;66758;52.078;5.070;2023-05-07T05:59:11;23.10;;;16.20;;
77598;SDS011;66758;52.078;5.070;2023-05-07T06:01:36;23.83;;;17.03;;
77598;SDS011;66758;52.078;5.070;2023-05-07T06:04:03;23.23;;;16.88;;
77598;SDS011;66758;52.078;5.070;2023-05-07T06:06:29;23.93;;;18.43;;
77598;SDS011;66758;52.078;5.070;2023-05-07T06:08:54;22.07;;;17.17;;
77598;SDS011;66758;52.078;5.070;2023-05-07T06:11:19;24.05;;;18.65;;
77598;SDS011;66758;52.078;5.070;2023-05-07T06:13:45;24.07;;;18.33;;
77598;SDS011;66758;52.078;5.070;2023-05-07T06:16:13;26.43;;;18.60;;
77598;SDS011;66758;52.078;5.070;2023-05-07T06:18:38;23.90;;;17.05;;
77598;SDS011;66758;52.078;5.070;2023-05-07T06:21:04;22.97;;;16.97;;
77598;SDS011;66758;52.078;5.070;2023-05-07T06:23:31;25.00;;;18.07;;
77598;SDS011;66758;52.078;5.070;2023-05-07T06:25:56;24.55;;;17.75;;
77598;SDS011;66758;52.078;5.070;2023-05-07T06:28:21;22.50;;;17.33;;
77598;SDS011;66758;52.078;5.070;2023-05-07T06:30:47;26.17;;;18.07;;
77598;SDS011;66758;52.078;5.070;2023-05-07T06:33:13;26.77;;;19.17;;
77598;SDS011;66758;52.078;5.070;2023-05-07T06:35:39;23.43;;;18.53;;
77598;SDS011;66758;52.078;5.070;2023-05-07T06:38:04;25.07;;;18.37;;
77598;SDS011;66758;52.078;5.070;2023-05-07T06:40:30;24.13;;;17.75;;
77598;SDS011;66758;52.078;5.070;2023-05-07T06:42:57;22.23;;;17.57;;
77598;SDS011;66758;52.078;5.070;2023-05-07T06:45:22;21.98;;;16.65;;
77598;SDS011;66758;52.078;5.070;2023-05-07T06:47:48;22.75;;;17.50;;
77598;SDS011;66758;52.078;5.070;2023-05-07T06:50:14;20.27;;;15.93;;
77598;SDS011;66758;52.078;5.070;2023-05-07T06:52:41;20.50;;;16.17;;
77598;SDS011;66758;52.078;5.070;2023-05-07T06:55:07;24.00;;;17.07;;
77598;SDS011;66758;52.078;5.070;2023-05-07T06:57:32;19.95;;;15.95;;
77598;SDS011;66758;52.078;5.070;2023-05-07T06:59:57;26.10;;;17.50;;
77598;SDS011;66758;52.078;5.070;2023-05-07T07:02:23;22.53;;;16.03;;
77598;SDS011;66758;52.078;5.070;2023-05-07T07:04:48;20.00;;;15.10;;
77598;SDS011;66758;52.078;5.070;2023-05-07T07:07:15;23.67;;;16.83;;
77598;SDS011;66758;52.078;5.070;2023-05-07T07:09:40;23.00;;;16.60;;
77598;SDS011;66758;52.078;5.070;2023-05-07T07:12:05;22.20;;;16.83;;
77598;SDS011;66758;52.078;5.070;2023-05-07T07:14:30;18.90;;;15.50;;
77598;SDS011;66758;52.078;5.070;2023-05-07T07:16:56;21.13;;;15.87;;
77598;SDS011;66758;52.078;5.070;2023-05-07T07:19:21;18.13;;;15.90;;
77598;SDS011;66758;52.078;5.070;2023-05-07T07:21:46;21.13;;;15.77;;
77598;SDS011;66758;52.078;5.070;2023-05-07T07:24:12;21.03;;;15.00;;
77598;SDS011;66758;52.078;5.070;2023-05-07T07:26:38;19.58;;;15.23;;
77598;SDS011;66758;52.078;5.070;2023-05-07T07:29:04;21.50;;;15.35;;
77598;SDS011;66758;52.078;5.070;2023-05-07T07:31:30;21.47;;;15.93;;
77598;SDS011;66758;52.078;5.070;2023-05-07T07:33:55;19.67;;;14.77;;
77598;SDS011;66758;52.078;5.070;2023-05-07T07:36:21;20.23;;;16.07;;
77598;SDS011;66758;52.078;5.070;2023-05-07T07:38:46;21.17;;;15.47;;
77598;SDS011;66758;52.078;5.070;2023-05-07T07:41:11;21.57;;;16.37;;
77598;SDS011;66758;52.078;5.070;2023-05-07T07:43:36;19.67;;;15.87;;
77598;SDS011;66758;52.078;5.070;2023-05-07T07:46:02;19.73;;;16.17;;
77598;SDS011;66758;52.078;5.070;2023-05-07T07:48:27;19.90;;;15.60;;
77598;SDS011;66758;52.078;5.070;2023-05-07T07:50:52;18.63;;;14.87;;
77598;SDS011;66758;52.078;5.070;2023-05-07T07:53:18;21.47;;;15.30;;
77598;SDS011;66758;52.078;5.070;2023-05-07T07:55:43;19.52;;;15.05;;
77598;SDS011;66758;52.078;5.070;2023-05-07T07:58:08;20.60;;;14.50;;
77598;SDS011;66758;52.078;5.070;2023-05-07T08:00:34;21.77;;;14.90;;
77598;SDS011;66758;52.078;5.070;2023-05-07T08:02:59;22.07;;;14.83;;
77598;SDS011;66758;52.078;5.070;2023-05-07T08:05:25;19.58;;;15.15;;
77598;SDS011;66758;52.078;5.070;2023-05-07T08:07:50;22.80;;;15.73;;
77598;SDS011;66758;52.078;5.070;2023-05-07T08:10:25;19.17;;;14.35;;
77598;SDS011;66758;52.078;5.070;2023-05-07T08:12:50;17.83;;;14.07;;
77598;SDS011;66758;52.078;5.070;2023-05-07T08:15:16;18.07;;;13.93;;
77598;SDS011;66758;52.078;5.070;2023-05-07T08:17:41;17.33;;;13.60;;
77598;SDS011;66758;52.078;5.070;2023-05-07T08:20:07;18.48;;;14.38;;
77598;SDS011;66758;52.078;5.070;2023-05-07T08:22:34;17.90;;;14.87;;
77598;SDS011;66758;52.078;5.070;2023-05-07T08:25:00;18.20;;;13.93;;
77598;SDS011;66758;52.078;5.070;2023-05-07T08:27:25;18.45;;;14.30;;
77598;SDS011;66758;52.078;5.070;2023-05-07T08:29:51;19.40;;;13.77;;
77598;SDS011;66758;52.078;5.070;2023-05-07T08:32:16;18.43;;;13.10;;
77598;SDS011;66758;52.078;5.070;2023-05-07T08:34:41;16.57;;;12.60;;
77598;SDS011;66758;52.078;5.070;2023-05-07T08:37:06;18.13;;;13.23;;
77598;SDS011;66758;52.078;5.070;2023-05-07T08:39:32;20.47;;;13.07;;
77598;SDS011;66758;52.078;5.070;2023-05-07T08:41:57;16.73;;;11.90;;
77598;SDS011;66758;52.078;5.070;2023-05-07T08:44:26;15.73;;;12.70;;
77598;SDS011;66758;52.078;5.070;2023-05-07T08:46:52;18.17;;;12.35;;
77598;SDS011;66758;52.078;5.070;2023-05-07T08:49:19;15.32;;;11.70;;
77598;SDS011;66758;52.078;5.070;2023-05-07T08:51:45;13.97;;;12.37;;
77598;SDS011;66758;52.078;5.070;2023-05-07T08:54:11;15.35;;;12.35;;
77598;SDS011;66758;52.078;5.070;2023-05-07T08:56:37;13.63;;;11.65;;
77598;SDS011;66758;52.078;5.070;2023-05-07T08:59:02;13.50;;;10.73;;
77598;SDS011;66758;52.078;5.070;2023-05-07T09:01:28;13.20;;;10.55;;
77598;SDS011;66758;52.078;5.070;2023-05-07T09:03:54;12.57;;;10.07;;
77598;SDS011;66758;52.078;5.070;2023-05-07T09:06:20;12.63;;;8.98;;
77598;SDS011;66758;52.078;5.070;2023-05-07T09:08:49;10.30;;;8.70;;
77598;SDS011;66758;52.078;5.070;2023-05-07T09:11:15;12.73;;;9.63;;
77598;SDS011;66758;52.078;5.070;2023-05-07T09:13:40;11.80;;;9.20;;
77598;SDS011;66758;52.078;5.070;2023-05-07T09:16:12;11.37;;;9.00;;
77598;SDS011;66758;52.078;5.070;2023-05-07T09:18:44;11.75;;;9.27;;
77598;SDS011;66758;52.078;5.070;2023-05-07T09:21:10;13.00;;;9.00;;
77598;SDS011;66758;52.078;5.070;2023-05-07T09:23:37;13.50;;;9.65;;
77598;SDS011;66758;52.078;5.070;2023-05-07T09:26:03;11.40;;;9.18;;
77598;SDS011;66758;52.078;5.070;2023-05-07T09:28:29;11.32;;;8.95;;
77598;SDS011;66758;52.078;5.070;2023-05-07T09:30:55;10.57;;;9.10;;
77598;SDS011;66758;52.078;5.070;2023-05-07T09:33:20;11.40;;;8.83;;
77598;SDS011;66758;52.078;5.070;2023-05-07T09:35:47;10.88;;;8.48;;
77598;SDS011;66758;52.078;5.070;2023-05-07T09:38:16;13.40;;;9.88;;
77598;SDS011;66758;52.078;5.070;2023-05-07T09:40:44;11.15;;;9.98;;
77598;SDS011;66758;52.078;5.070;2023-05-07T09:43:10;10.20;;;9.00;;
77598;SDS011;66758;52.078;5.070;2023-05-07T09:45:38;10.77;;;8.67;;
77598;SDS011;66758;52.078;5.070;2023-05-07T09:48:04;13.07;;;9.37;;
77598;SDS011;66758;52.078;5.070;2023-05-07T09:50:38;12.05;;;9.05;;
77598;SDS011;66758;52.078;5.070;2023-05-07T09:53:05;11.70;;;9.30;;
77598;SDS011;66758;52.078;5.070;2023-05-07T09:55:35;11.45;;;8.45;;
77598;SDS011;66758;52.078;5.070;2023-05-07T09:58:01;9.97;;;8.17;;
77598;SDS011;66758;52.078;5.070;2023-05-07T10:00:27;9.50;;;7.50;;
77598;SDS011;66758;52.078;5.070;2023-05-07T10:02:53;12.82;;;7.57;;
77598;SDS011;66758;52.078;5.070;2023-05-07T10:05:21;9.20;;;5.68;;
77598;SDS011;66758;52.078;5.070;2023-05-07T10:07:46;7.40;;;5.73;;
77598;SDS011;66758;52.078;5.070;2023-05-07T10:10:12;10.10;;;6.30;;
77598;SDS011;66758;52.078;5.070;2023-05-07T10:12:38;8.27;;;5.45;;
77598;SDS011;66758;52.078;5.070;2023-05-07T10:15:05;7.85;;;4.90;;
77598;SDS011;66758;52.078;5.070;2023-05-07T10:17:31;8.63;;;5.77;;
77598;SDS011;66758;52.078;5.070;2023-05-07T10:19:56;8.23;;;5.15;;
77598;SDS011;66758;52.078;5.070;2023-05-07T10:22:22;8.53;;;5.40;;
77598;SDS011;66758;52.078;5.070;2023-05-07T10:24:49;6.35;;;5.28;;
77598;SDS011;66758;52.078;5.070;2023-05-07T10:27:16;6.55;;;4.78;;
77598;SDS011;66758;52.078;5.070;2023-05-07T10:29:52;5.87;;;5.10;;
77598;SDS011;66758;52.078;5.070;2023-05-07T10:32:35;9.15;;;6.65;;
77598;SDS011;66758;52.078;5.070;2023-05-07T10:35:03;8.23;;;4.97;;
77598;SDS011;66758;52.078;5.070;2023-05-07T10:37:31;7.60;;;5.00;;
77598;SDS011;66758;52.078;5.070;2023-05-07T10:39:58;6.57;;;5.15;;
77598;SDS011;66758;52.078;5.070;2023-05-07T10:42:23;7.83;;;5.47;;
77598;SDS011;66758;52.078;5.070;2023-05-07T10:44:49;8.23;;;5.57;;
77598;SDS011;66758;52.078;5.070;2023-05-07T10:47:15;8.10;;;5.83;;
77598;SDS011;66758;52.078;5.070;2023-05-07T10:52:11;8.30;;;4.53;;
77598;SDS011;66758;52.078;5.070;2023-05-07T10:54:36;7.10;;;4.00;;
77598;SDS011;66758;52.078;5.070;2023-05-07T10:59:48;8.63;;;3.83;;
77598;SDS011;66758;52.078;5.070;2023-05-07T11:02:16;7.03;;;3.90;;
77598;SDS011;66758;52.078;5.070;2023-05-07T11:07:50;5.72;;;3.67;;
77598;SDS011;66758;52.078;5.070;2023-05-07T11:10:18;4.65;;;3.58;;
77598;SDS011;66758;52.078;5.070;2023-05-07T11:15:36;8.00;;;3.73;;
77598;SDS011;66758;52.078;5.070;2023-05-07T11:18:02;6.70;;;3.45;;
77598;SDS011;66758;52.078;5.070;2023-05-07T11:26:03;6.75;;;4.18;;
77598;SDS011;66758;52.078;5.070;2023-05-07T11:28:36;5.67;;;4.10;;
77598;SDS011;66758;52.078;5.070;2023-05-07T11:31:02;6.50;;;4.20;;
77598;SDS011;66758;52.078;5.070;2023-05-07T11:33:33;5.95;;;4.35;;
77598;SDS011;66758;52.078;5.070;2023-05-07T11:36:02;6.72;;;3.90;;
77598;SDS011;66758;52.078;5.070;2023-05-07T11:38:28;6.00;;;4.70;;
77598;SDS011;66758;52.078;5.070;2023-05-07T11:40:57;6.55;;;3.50;;
77598;SDS011;66758;52.078;5.070;2023-05-07T11:43:25;6.63;;;4.07;;
77598;SDS011;66758;52.078;5.070;2023-05-07T11:45:51;8.53;;;4.90;;
77598;SDS011;66758;52.078;5.070;2023-05-07T11:48:16;7.27;;;5.67;;
77598;SDS011;66758;52.078;5.070;2023-05-07T11:51:03;8.23;;;6.28;;
77598;SDS011;66758;52.078;5.070;2023-05-07T11:53:34;8.13;;;5.50;;
77598;SDS011;66758;52.078;5.070;2023-05-07T11:55:59;7.95;;;5.30;;
77598;SDS011;66758;52.078;5.070;2023-05-07T11:58:25;7.33;;;4.33;;
77598;SDS011;66758;52.078;5.070;2023-05-07T12:00:53;8.60;;;5.83;;
77598;SDS011;66758;52.078;5.070;2023-05-07T12:03:19;7.25;;;4.78;;
77598;SDS011;66758;52.078;5.070;2023-05-07T12:05:45;5.53;;;4.67;;
77598;SDS011;66758;52.078;5.070;2023-05-07T12:08:17;8.35;;;6.38;;
77598;SDS011;66758;52.078;5.070;2023-05-07T12:10:43;8.55;;;6.53;;
77598;SDS011;66758;52.078;5.070;2023-05-07T12:13:19;6.90;;;5.93;;
77598;SDS011;66758;52.078;5.070;2023-05-07T12:15:46;8.90;;;7.25;;
77598;SDS011;66758;52.078;5.070;2023-05-07T12:18:11;10.37;;;9.27;;
77598;SDS011;66758;52.078;5.070;2023-05-07T12:20:37;12.13;;;9.65;;
77598;SDS011;66758;52.078;5.070;2023-05-07T12:23:03;7.77;;;6.90;;
77598;SDS011;66758;52.078;5.070;2023-05-07T12:25:35;8.45;;;7.10;;
77598;SDS011;66758;52.078;5.070;2023-05-07T12:28:03;9.57;;;7.28;;
77598;SDS011;66758;52.078;5.070;2023-05-07T12:30:32;14.00;;;12.52;;
77598;SDS011;66758;52.078;5.070;2023-05-07T12:33:01;9.33;;;7.20;;
77598;SDS011;66758;52.078;5.070;2023-05-07T12:35:30;8.55;;;7.47;;
77598;SDS011;66758;52.078;5.070;2023-05-07T12:37:56;10.83;;;8.90;;
77598;SDS011;66758;52.078;5.070;2023-05-07T12:40:24;8.82;;;6.75;;
77598;SDS011;66758;52.078;5.070;2023-05-07T12:42:49;10.03;;;7.10;;
77598;SDS011;66758;52.078;5.070;2023-05-07T12:45:17;11.13;;;7.53;;
77598;SDS011;66758;52.078;5.070;2023-05-07T12:47:46;10.17;;;9.00;;
77598;SDS011;66758;52.078;5.070;2023-05-07T12:50:12;11.38;;;8.40;;
77598;SDS011;66758;52.078;5.070;2023-05-07T12:52:38;11.82;;;8.65;;
77598;SDS011;66758;52.078;5.070;2023-05-07T12:55:07;11.70;;;8.20;;
77598;SDS011;66758;52.078;5.070;2023-05-07T12:57:39;9.45;;;7.75;;
77598;SDS011;66758;52.078;5.070;2023-05-07T13:00:05;9.30;;;7.70;;
77598;SDS011;66758;52.078;5.070;2023-05-07T13:02:33;10.83;;;8.30;;
77598;SDS011;66758;52.078;5.070;2023-05-07T13:04:59;11.43;;;8.77;;
77598;SDS011;66758;52.078;5.070;2023-05-07T13:07:25;8.90;;;7.73;;
77598;SDS011;66758;52.078;5.070;2023-05-07T13:09:50;10.80;;;7.97;;
77598;SDS011;66758;52.078;5.070;2023-05-07T13:12:15;9.15;;;7.15;;
77598;SDS011;66758;52.078;5.070;2023-05-07T13:14:41;10.67;;;6.93;;
77598;SDS011;66758;52.078;5.070;2023-05-07T13:17:06;8.20;;;5.97;;
77598;SDS011;66758;52.078;5.070;2023-05-07T13:19:31;9.87;;;6.30;;
77598;SDS011;66758;52.078;5.070;2023-05-07T13:21:57;9.07;;;5.53;;
77598;SDS011;66758;52.078;5.070;2023-05-07T13:24:22;7.43;;;4.80;;
77598;SDS011;66758;52.078;5.070;2023-05-07T13:26:47;7.57;;;4.67;;
77598;SDS011;66758;52.078;5.070;2023-05-07T13:29:12;7.10;;;4.47;;
77598;SDS011;66758;52.078;5.070;2023-05-07T13:31:38;6.10;;;3.90;;
77598;SDS011;66758;52.078;5.070;2023-05-07T13:34:07;5.80;;;3.42;;
77598;SDS011;66758;52.078;5.070;2023-05-07T13:36:33;6.93;;;3.70;;
77598;SDS011;66758;52.078;5.070;2023-05-07T13:39:02;8.73;;;3.17;;
77598;SDS011;66758;52.078;5.070;2023-05-07T13:41:27;5.57;;;3.42;;
77598;SDS011;66758;52.078;5.070;2023-05-07T13:43:53;7.47;;;4.10;;
77598;SDS011;66758;52.078;5.070;2023-05-07T13:46:18;5.83;;;4.10;;
77598;SDS011;66758;52.078;5.070;2023-05-07T13:48:43;6.30;;;4.27;;
77598;SDS011;66758;52.078;5.070;2023-05-07T13:51:08;7.07;;;3.90;;
77598;SDS011;66758;52.078;5.070;2023-05-07T13:53:34;6.68;;;3.95;;
77598;SDS011;66758;52.078;5.070;2023-05-07T13:56:01;7.47;;;3.53;;
77598;SDS011;66758;52.078;5.070;2023-05-07T13:58:26;7.50;;;3.75;;
77598;SDS011;66758;52.078;5.070;2023-05-07T14:00:51;5.60;;;3.07;;
77598;SDS011;66758;52.078;5.070;2023-05-07T14:03:17;6.73;;;3.60;;
77598;SDS011;66758;52.078;5.070;2023-05-07T14:05:44;4.73;;;3.20;;
77598;SDS011;66758;52.078;5.070;2023-05-07T14:08:09;6.13;;;3.22;;
77598;SDS011;66758;52.078;5.070;2023-05-07T14:10:35;6.40;;;3.37;;
77598;SDS011;66758;52.078;5.070;2023-05-07T14:13:01;6.32;;;3.70;;
77598;SDS011;66758;52.078;5.070;2023-05-07T14:15:26;6.53;;;3.70;;
77598;SDS011;66758;52.078;5.070;2023-05-07T14:17:52;6.17;;;3.63;;
77598;SDS011;66758;52.078;5.070;2023-05-07T14:20:17;7.00;;;4.27;;
77598;SDS011;66758;52.078;5.070;2023-05-07T14:22:42;7.00;;;4.50;;
77598;SDS011;66758;52.078;5.070;2023-05-07T14:25:08;7.25;;;4.70;;
77598;SDS011;66758;52.078;5.070;2023-05-07T14:27:34;11.93;;;7.20;;
77598;SDS011;66758;52.078;5.070;2023-05-07T14:30:00;10.18;;;7.63;;
77598;SDS011;66758;52.078;5.070;2023-05-07T14:32:25;12.43;;;7.90;;
77598;SDS011;66758;52.078;5.070;2023-05-07T14:34:50;10.80;;;8.60;;
77598;SDS011;66758;52.078;5.070;2023-05-07T14:37:16;14.77;;;10.13;;
77598;SDS011;66758;52.078;5.070;2023-05-07T14:39:41;14.40;;;11.47;;